sensor_id;sensor_type;location;lat;lon;timestamp;pressure;altitude;pressure_sealevel;temperature;humidity
59939;BME280;45801;51.810;19.444;2023-02-19T00:01:24;98685.26;;;3.16;81.34
59939;BME280;45801;51.810;19.444;2023-02-19T00:03:53;98681.80;;;3.06;81.59
59939;BME280;45801;51.810;19.444;2023-02-19T00:06:23;98678.31;;;3.08;81.11
59939;BME280;45801;51.810;19.444;2023-02-19T00:08:51;98677.10;;;3.05;80.86
59939;BME280;45801;51.810;19.444;2023-02-19T00:11:20;98683.21;;;3.00;79.81
59939;BME280;45801;51.810;19.444;2023-02-19T00:13:51;98684.14;;;2.93;80.00
59939;BME280;45801;51.810;19.444;2023-02-19T00:16:23;98682.06;;;2.93;80.28
59939;BME280;45801;51.810;19.444;2023-02-19T00:18:51;98679.98;;;2.91;80.34
59939;BME280;45801;51.810;19.444;2023-02-19T00:21:21;98677.66;;;2.92;80.09
59939;BME280;45801;51.810;19.444;2023-02-19T00:23:52;98675.56;;;2.97;79.87
59939;BME280;45801;51.810;19.444;2023-02-19T00:26:19;98671.08;;;3.06;79.86
59939;BME280;45801;51.810;19.444;2023-02-19T00:28:47;98673.14;;;3.03;79.43
59939;BME280;45801;51.810;19.444;2023-02-19T00:31:21;98678.37;;;2.98;79.53
59939;BME280;45801;51.810;19.444;2023-02-19T00:33:51;98676.64;;;3.00;79.69
59939;BME280;45801;51.810;19.444;2023-02-19T00:36:19;98672.19;;;2.95;79.90
59939;BME280;45801;51.810;19.444;2023-02-19T00:38:46;98677.30;;;2.94;79.65
59939;BME280;45801;51.810;19.444;2023-02-19T00:41:14;98679.85;;;2.99;79.82
59939;BME280;45801;51.810;19.444;2023-02-19T00:43:50;98683.14;;;3.05;79.72
59939;BME280;45801;51.810;19.444;2023-02-19T00:46:19;98684.23;;;3.14;79.42
59939;BME280;45801;51.810;19.444;2023-02-19T00:48:47;98683.68;;;3.21;79.28
59939;BME280;45801;51.810;19.444;2023-02-19T00:51:14;98682.18;;;3.25;79.13
59939;BME280;45801;51.810;19.444;2023-02-19T00:53:41;98683.27;;;3.23;79.18
59939;BME280;45801;51.810;19.444;2023-02-19T00:56:08;98677.61;;;3.35;79.25
59939;BME280;45801;51.810;19.444;2023-02-19T00:58:35;98672.36;;;3.37;79.21
59939;BME280;45801;51.810;19.444;2023-02-19T01:01:02;98669.73;;;3.39;79.22
59939;BME280;45801;51.810;19.444;2023-02-19T01:03:29;98666.89;;;3.44;78.64
59939;BME280;45801;51.810;19.444;2023-02-19T01:05:55;98663.34;;;3.42;78.29
59939;BME280;45801;51.810;19.444;2023-02-19T01:08:23;98663.12;;;3.41;78.30
59939;BME280;45801;51.810;19.444;2023-02-19T01:10:49;98665.03;;;3.39;78.27
59939;BME280;45801;51.810;19.444;2023-02-19T01:13:16;98663.23;;;3.27;78.44
59939;BME280;45801;51.810;19.444;2023-02-19T01:15:43;98659.56;;;3.21;78.38
59939;BME280;45801;51.810;19.444;2023-02-19T01:18:10;98664.04;;;3.15;79.02
59939;BME280;45801;51.810;19.444;2023-02-19T01:20:41;98663.60;;;3.10;79.30
59939;BME280;45801;51.810;19.444;2023-02-19T01:23:09;98667.21;;;3.10;79.60
59939;BME280;45801;51.810;19.444;2023-02-19T01:25:40;98666.08;;;3.03;79.36
59939;BME280;45801;51.810;19.444;2023-02-19T01:28:08;98664.90;;;3.01;79.25
59939;BME280;45801;51.810;19.444;2023-02-19T01:30:37;98661.23;;;2.95;79.67
59939;BME280;45801;51.810;19.444;2023-02-19T01:33:06;98660.34;;;3.00;79.64
59939;BME280;45801;51.810;19.444;2023-02-19T01:35:33;98662.58;;;3.05;79.38
59939;BME280;45801;51.810;19.444;2023-02-19T01:38:00;98659.48;;;3.13;79.38
59939;BME280;45801;51.810;19.444;2023-02-19T01:40:26;98653.56;;;3.16;78.92
59939;BME280;45801;51.810;19.444;2023-02-19T01:42:53;98653.33;;;3.12;78.80
59939;BME280;45801;51.810;19.444;2023-02-19T01:45:33;98649.70;;;3.15;78.77
59939;BME280;45801;51.810;19.444;2023-02-19T01:48:08;98652.65;;;3.15;78.86
59939;BME280;45801;51.810;19.444;2023-02-19T01:51:04;98650.95;;;3.13;78.65
59939;BME280;45801;51.810;19.444;2023-02-19T01:53:36;98648.61;;;3.06;78.46
59939;BME280;45801;51.810;19.444;2023-02-19T01:56:06;98652.44;;;3.12;78.53
59939;BME280;45801;51.810;19.444;2023-02-19T01:58:35;98656.27;;;3.23;78.44
59939;BME280;45801;51.810;19.444;2023-02-19T02:01:05;98658.51;;;3.34;78.28
59939;BME280;45801;51.810;19.444;2023-02-19T02:03:33;98657.88;;;3.43;78.11
59939;BME280;45801;51.810;19.444;2023-02-19T02:08:30;98644.55;;;3.55;76.68
59939;BME280;45801;51.810;19.444;2023-02-19T02:11:17;98639.95;;;3.56;76.59
59939;BME280;45801;51.810;19.444;2023-02-19T02:13:45;98638.79;;;3.63;76.45
59939;BME280;45801;51.810;19.444;2023-02-19T02:16:38;98636.96;;;3.69;75.62
59939;BME280;45801;51.810;19.444;2023-02-19T02:24:50;98632.36;;;3.91;75.01
59939;BME280;45801;51.810;19.444;2023-02-19T02:27:30;98635.02;;;3.93;74.52
59939;BME280;45801;51.810;19.444;2023-02-19T02:30:15;98638.58;;;3.91;73.68
59939;BME280;45801;51.810;19.444;2023-02-19T02:32:57;98637.88;;;3.91;73.44
59939;BME280;45801;51.810;19.444;2023-02-19T02:35:44;98641.80;;;3.93;73.83
59939;BME280;45801;51.810;19.444;2023-02-19T02:38:15;98638.72;;;3.93;73.67
59939;BME280;45801;51.810;19.444;2023-02-19T02:40:44;98638.39;;;3.97;73.72
59939;BME280;45801;51.810;19.444;2023-02-19T02:43:12;98638.45;;;3.95;73.38
59939;BME280;45801;51.810;19.444;2023-02-19T02:45:39;98635.13;;;3.94;73.45
59939;BME280;45801;51.810;19.444;2023-02-19T02:50:47;98626.26;;;4.05;74.36
59939;BME280;45801;51.810;19.444;2023-02-19T02:53:40;98629.08;;;4.12;73.63
59939;BME280;45801;51.810;19.444;2023-02-19T02:56:29;98626.79;;;4.05;73.77
59939;BME280;45801;51.810;19.444;2023-02-19T02:58:57;98626.61;;;3.91;74.02
59939;BME280;45801;51.810;19.444;2023-02-19T03:01:36;98627.69;;;3.88;74.17
59939;BME280;45801;51.810;19.444;2023-02-19T03:04:34;98623.65;;;3.79;74.54
59939;BME280;45801;51.810;19.444;2023-02-19T03:07:06;98622.40;;;3.72;74.77
59939;BME280;45801;51.810;19.444;2023-02-19T03:09:38;98621.23;;;3.73;75.00
59939;BME280;45801;51.810;19.444;2023-02-19T03:12:13;98615.93;;;3.68;75.13
59939;BME280;45801;51.810;19.444;2023-02-19T03:15:02;98609.77;;;3.76;75.42
59939;BME280;45801;51.810;19.444;2023-02-19T03:17:51;98607.78;;;3.80;75.39
59939;BME280;45801;51.810;19.444;2023-02-19T03:20:40;98606.85;;;3.76;75.22
59939;BME280;45801;51.810;19.444;2023-02-19T03:23:10;98608.05;;;3.72;75.73
59939;BME280;45801;51.810;19.444;2023-02-19T03:25:38;98601.58;;;3.66;75.68
59939;BME280;45801;51.810;19.444;2023-02-19T03:28:26;98597.78;;;3.69;76.02
59939;BME280;45801;51.810;19.444;2023-02-19T03:31:16;98594.16;;;3.72;75.99
59939;BME280;45801;51.810;19.444;2023-02-19T03:33:46;98587.76;;;3.75;75.96
59939;BME280;45801;51.810;19.444;2023-02-19T03:36:16;98585.66;;;3.78;75.91
59939;BME280;45801;51.810;19.444;2023-02-19T03:38:56;98588.67;;;3.70;75.82
59939;BME280;45801;51.810;19.444;2023-02-19T03:42:04;98587.59;;;3.63;76.09
59939;BME280;45801;51.810;19.444;2023-02-19T03:50:20;98584.65;;;3.52;76.03
59939;BME280;45801;51.810;19.444;2023-02-19T04:01:29;98580.92;;;3.65;75.34
59939;BME280;45801;51.810;19.444;2023-02-19T04:04:02;98588.34;;;3.67;75.19
59939;BME280;45801;51.810;19.444;2023-02-19T04:06:33;98587.88;;;3.71;75.24
59939;BME280;45801;51.810;19.444;2023-02-19T04:09:04;98583.93;;;3.75;74.92
59939;BME280;45801;51.810;19.444;2023-02-19T04:11:32;98584.01;;;3.79;74.90
59939;BME280;45801;51.810;19.444;2023-02-19T04:14:06;98587.29;;;3.85;74.87
59939;BME280;45801;51.810;19.444;2023-02-19T04:16:35;98584.55;;;3.91;74.79
59939;BME280;45801;51.810;19.444;2023-02-19T04:19:10;98585.74;;;4.00;74.58
59939;BME280;45801;51.810;19.444;2023-02-19T04:21:39;98583.45;;;4.08;74.36
59939;BME280;45801;51.810;19.444;2023-02-19T04:24:11;98576.40;;;4.15;74.29
59939;BME280;45801;51.810;19.444;2023-02-19T04:26:39;98573.95;;;4.15;73.93
59939;BME280;45801;51.810;19.444;2023-02-19T04:29:07;98573.60;;;4.15;73.93
59939;BME280;45801;51.810;19.444;2023-02-19T04:31:34;98573.41;;;4.14;74.07
59939;BME280;45801;51.810;19.444;2023-02-19T04:34:02;98575.09;;;4.16;74.18
59939;BME280;45801;51.810;19.444;2023-02-19T04:36:31;98567.63;;;4.22;73.83
59939;BME280;45801;51.810;19.444;2023-02-19T04:38:58;98557.69;;;4.24;73.45
59939;BME280;45801;51.810;19.444;2023-02-19T04:41:25;98557.82;;;4.18;73.44
59939;BME280;45801;51.810;19.444;2023-02-19T04:43:51;98555.31;;;4.16;73.91
59939;BME280;45801;51.810;19.444;2023-02-19T04:46:17;98548.08;;;4.20;74.09
59939;BME280;45801;51.810;19.444;2023-02-19T04:48:44;98548.35;;;4.22;73.65
59939;BME280;45801;51.810;19.444;2023-02-19T04:51:10;98551.96;;;4.12;73.78
59939;BME280;45801;51.810;19.444;2023-02-19T04:53:38;98555.23;;;4.09;74.08
59939;BME280;45801;51.810;19.444;2023-02-19T04:56:10;98543.16;;;4.04;74.02
59939;BME280;45801;51.810;19.444;2023-02-19T04:58:37;98534.26;;;4.00;74.27
59939;BME280;45801;51.810;19.444;2023-02-19T05:01:04;98529.21;;;4.02;74.37
59939;BME280;45801;51.810;19.444;2023-02-19T05:03:31;98521.11;;;4.06;74.06
59939;BME280;45801;51.810;19.444;2023-02-19T05:06:05;98517.60;;;4.05;74.10
59939;BME280;45801;51.810;19.444;2023-02-19T05:08:32;98515.64;;;4.07;74.42
59939;BME280;45801;51.810;19.444;2023-02-19T05:11:01;98514.46;;;4.08;74.45
59939;BME280;45801;51.810;19.444;2023-02-19T05:13:29;98515.93;;;4.12;74.00
59939;BME280;45801;51.810;19.444;2023-02-19T05:15:58;98516.86;;;4.16;74.36
59939;BME280;45801;51.810;19.444;2023-02-19T05:18:25;98520.19;;;4.20;74.12
59939;BME280;45801;51.810;19.444;2023-02-19T05:20:53;98516.28;;;4.21;74.10
59939;BME280;45801;51.810;19.444;2023-02-19T05:23:19;98520.53;;;4.20;74.01
59939;BME280;45801;51.810;19.444;2023-02-19T05:25:46;98524.17;;;4.17;74.10
59939;BME280;45801;51.810;19.444;2023-02-19T05:28:13;98532.98;;;4.17;74.13
59939;BME280;45801;51.810;19.444;2023-02-19T05:30:48;98537.98;;;4.16;74.28
59939;BME280;45801;51.810;19.444;2023-02-19T05:33:16;98546.66;;;4.13;74.16
59939;BME280;45801;51.810;19.444;2023-02-19T05:35:46;98548.58;;;4.10;74.41
59939;BME280;45801;51.810;19.444;2023-02-19T05:38:14;98549.95;;;4.07;74.52
59939;BME280;45801;51.810;19.444;2023-02-19T05:40:41;98551.70;;;4.04;74.70
59939;BME280;45801;51.810;19.444;2023-02-19T05:43:08;98557.54;;;4.06;74.61
59939;BME280;45801;51.810;19.444;2023-02-19T05:45:44;98557.66;;;4.09;74.42
59939;BME280;45801;51.810;19.444;2023-02-19T05:48:11;98567.98;;;4.04;74.14
59939;BME280;45801;51.810;19.444;2023-02-19T05:50:38;98568.39;;;4.02;74.45
59939;BME280;45801;51.810;19.444;2023-02-19T05:53:05;98570.34;;;3.91;74.70
59939;BME280;45801;51.810;19.444;2023-02-19T05:55:34;98570.75;;;3.93;74.63
59939;BME280;45801;51.810;19.444;2023-02-19T05:58:01;98568.13;;;3.92;74.57
59939;BME280;45801;51.810;19.444;2023-02-19T06:00:28;98564.30;;;3.95;74.65
59939;BME280;45801;51.810;19.444;2023-02-19T06:02:55;98564.90;;;3.87;74.66
59939;BME280;45801;51.810;19.444;2023-02-19T06:05:22;98568.34;;;3.72;75.05
59939;BME280;45801;51.810;19.444;2023-02-19T06:07:48;98569.27;;;3.73;75.24
59939;BME280;45801;51.810;19.444;2023-02-19T06:10:18;98567.60;;;3.71;75.31
59939;BME280;45801;51.810;19.444;2023-02-19T06:12:45;98558.27;;;3.81;75.07
59939;BME280;45801;51.810;19.444;2023-02-19T06:15:11;98552.73;;;3.90;74.84
59939;BME280;45801;51.810;19.444;2023-02-19T06:17:38;98557.85;;;3.85;74.73
59939;BME280;45801;51.810;19.444;2023-02-19T06:20:05;98557.89;;;3.86;75.01
59939;BME280;45801;51.810;19.444;2023-02-19T06:22:31;98557.10;;;3.87;74.84
59939;BME280;45801;51.810;19.444;2023-02-19T06:24:58;98564.44;;;3.73;75.48
59939;BME280;45801;51.810;19.444;2023-02-19T06:27:24;98567.05;;;3.65;75.73
59939;BME280;45801;51.810;19.444;2023-02-19T06:29:51;98573.23;;;3.49;76.23
59939;BME280;45801;51.810;19.444;2023-02-19T06:32:17;98577.09;;;3.42;76.79
59939;BME280;45801;51.810;19.444;2023-02-19T06:34:44;98584.41;;;3.39;77.19
59939;BME280;45801;51.810;19.444;2023-02-19T06:37:10;98588.10;;;3.35;77.03
59939;BME280;45801;51.810;19.444;2023-02-19T06:39:37;98585.96;;;3.40;76.55
59939;BME280;45801;51.810;19.444;2023-02-19T06:42:03;98582.96;;;3.36;76.91
59939;BME280;45801;51.810;19.444;2023-02-19T06:44:30;98583.52;;;3.33;77.14
59939;BME280;45801;51.810;19.444;2023-02-19T06:46:57;98582.66;;;3.36;76.89
59939;BME280;45801;51.810;19.444;2023-02-19T06:49:23;98582.45;;;3.22;77.42
59939;BME280;45801;51.810;19.444;2023-02-19T06:51:54;98579.69;;;3.24;77.86
59939;BME280;45801;51.810;19.444;2023-02-19T06:54:21;98580.42;;;3.28;77.79
59939;BME280;45801;51.810;19.444;2023-02-19T06:56:47;98582.56;;;3.20;77.80
59939;BME280;45801;51.810;19.444;2023-02-19T06:59:15;98582.80;;;3.24;77.75
59939;BME280;45801;51.810;19.444;2023-02-19T07:01:44;98584.88;;;3.27;77.78
59939;BME280;45801;51.810;19.444;2023-02-19T07:04:11;98583.20;;;3.31;77.36
59939;BME280;45801;51.810;19.444;2023-02-19T07:06:38;98586.54;;;3.38;77.42
59939;BME280;45801;51.810;19.444;2023-02-19T07:09:06;98587.14;;;3.39;77.32
59939;BME280;45801;51.810;19.444;2023-02-19T07:11:34;98586.30;;;3.33;77.14
59939;BME280;45801;51.810;19.444;2023-02-19T07:14:03;98588.76;;;3.23;77.44
59939;BME280;45801;51.810;19.444;2023-02-19T07:16:30;98592.17;;;3.17;77.71
59939;BME280;45801;51.810;19.444;2023-02-19T07:18:58;98588.78;;;3.20;77.78
59939;BME280;45801;51.810;19.444;2023-02-19T07:21:25;98591.47;;;3.27;77.82
59939;BME280;45801;51.810;19.444;2023-02-19T07:23:54;98594.02;;;3.29;77.84
59939;BME280;45801;51.810;19.444;2023-02-19T07:26:21;98591.46;;;3.33;77.66
59939;BME280;45801;51.810;19.444;2023-02-19T07:28:50;98584.18;;;3.33;77.21
59939;BME280;45801;51.810;19.444;2023-02-19T07:31:18;98590.13;;;3.34;77.09
59939;BME280;45801;51.810;19.444;2023-02-19T07:33:46;98590.73;;;3.35;76.93
59939;BME280;45801;51.810;19.444;2023-02-19T07:36:14;98588.38;;;3.37;76.89
59939;BME280;45801;51.810;19.444;2023-02-19T07:38:42;98585.51;;;3.35;76.95
59939;BME280;45801;51.810;19.444;2023-02-19T07:41:09;98589.44;;;3.37;76.90
59939;BME280;45801;51.810;19.444;2023-02-19T07:43:37;98589.50;;;3.46;77.01
59939;BME280;45801;51.810;19.444;2023-02-19T07:46:07;98593.40;;;3.57;76.46
59939;BME280;45801;51.810;19.444;2023-02-19T07:48:35;98596.27;;;3.61;76.47
59939;BME280;45801;51.810;19.444;2023-02-19T07:51:04;98598.02;;;3.61;76.09
59939;BME280;45801;51.810;19.444;2023-02-19T07:53:33;98599.06;;;3.70;75.87
59939;BME280;45801;51.810;19.444;2023-02-19T07:56:02;98603.94;;;3.65;75.67
59939;BME280;45801;51.810;19.444;2023-02-19T07:58:29;98607.23;;;3.53;75.63
59939;BME280;45801;51.810;19.444;2023-02-19T08:00:56;98610.13;;;3.53;75.96
59939;BME280;45801;51.810;19.444;2023-02-19T08:03:23;98612.34;;;3.64;75.76
59939;BME280;45801;51.810;19.444;2023-02-19T08:05:49;98611.20;;;3.67;75.71
59939;BME280;45801;51.810;19.444;2023-02-19T08:08:16;98612.40;;;3.70;75.76
59939;BME280;45801;51.810;19.444;2023-02-19T08:10:43;98614.63;;;3.73;75.53
59939;BME280;45801;51.810;19.444;2023-02-19T08:13:29;98610.58;;;3.71;75.59
59939;BME280;45801;51.810;19.444;2023-02-19T08:18:31;98610.95;;;3.75;75.27
59939;BME280;45801;51.810;19.444;2023-02-19T08:20:58;98611.31;;;3.75;75.31
59939;BME280;45801;51.810;19.444;2023-02-19T08:23:26;98608.81;;;3.74;75.10
59939;BME280;45801;51.810;19.444;2023-02-19T08:25:56;98611.64;;;3.75;75.26
59939;BME280;45801;51.810;19.444;2023-02-19T08:28:23;98618.32;;;3.74;75.96
59939;BME280;45801;51.810;19.444;2023-02-19T08:30:50;98614.95;;;3.67;75.40
59939;BME280;45801;51.810;19.444;2023-02-19T08:33:18;98617.66;;;3.62;75.27
59939;BME280;45801;51.810;19.444;2023-02-19T08:35:46;98618.95;;;3.44;75.03
59939;BME280;45801;51.810;19.444;2023-02-19T08:38:14;98617.80;;;3.48;75.26
59939;BME280;45801;51.810;19.444;2023-02-19T08:40:43;98618.03;;;3.57;75.51
59939;BME280;45801;51.810;19.444;2023-02-19T08:43:12;98615.30;;;3.55;75.36
59939;BME280;45801;51.810;19.444;2023-02-19T08:45:40;98614.25;;;3.55;75.15
59939;BME280;45801;51.810;19.444;2023-02-19T08:48:08;98612.69;;;3.52;75.66
59939;BME280;45801;51.810;19.444;2023-02-19T08:50:36;98608.48;;;3.51;75.53
59939;BME280;45801;51.810;19.444;2023-02-19T08:53:05;98603.25;;;3.62;75.58
59939;BME280;45801;51.810;19.444;2023-02-19T08:55:32;98599.16;;;3.72;75.51
59939;BME280;45801;51.810;19.444;2023-02-19T08:57:58;98603.66;;;3.78;74.89
59939;BME280;45801;51.810;19.444;2023-02-19T09:00:25;98606.39;;;3.83;74.62
59939;BME280;45801;51.810;19.444;2023-02-19T09:02:52;98600.66;;;3.85;74.40
59939;BME280;45801;51.810;19.444;2023-02-19T09:05:19;98598.91;;;3.94;74.27
59939;BME280;45801;51.810;19.444;2023-02-19T09:07:46;98604.48;;;3.82;73.64
59939;BME280;45801;51.810;19.444;2023-02-19T09:10:12;98605.91;;;3.78;73.23
59939;BME280;45801;51.810;19.444;2023-02-19T09:12:40;98611.36;;;3.76;73.45
59939;BME280;45801;51.810;19.444;2023-02-19T09:15:06;98617.09;;;3.67;73.62
59939;BME280;45801;51.810;19.444;2023-02-19T09:17:33;98627.98;;;3.70;73.55
59939;BME280;45801;51.810;19.444;2023-02-19T09:19:59;98632.36;;;3.56;73.16
59939;BME280;45801;51.810;19.444;2023-02-19T09:22:26;98634.98;;;3.57;73.65
59939;BME280;45801;51.810;19.444;2023-02-19T09:24:53;98640.46;;;3.50;73.88
59939;BME280;45801;51.810;19.444;2023-02-19T09:27:19;98644.69;;;3.51;73.91
59939;BME280;45801;51.810;19.444;2023-02-19T09:29:46;98650.80;;;3.44;74.20
59939;BME280;45801;51.810;19.444;2023-02-19T09:32:13;98652.46;;;3.45;74.31
59939;BME280;45801;51.810;19.444;2023-02-19T09:34:39;98653.19;;;3.43;73.98
59939;BME280;45801;51.810;19.444;2023-02-19T09:37:07;98654.37;;;3.48;74.09
59939;BME280;45801;51.810;19.444;2023-02-19T09:39:34;98653.71;;;3.49;73.57
59939;BME280;45801;51.810;19.444;2023-02-19T09:42:26;98653.98;;;3.53;73.45
59939;BME280;45801;51.810;19.444;2023-02-19T09:44:57;98656.95;;;3.60;73.45
59939;BME280;45801;51.810;19.444;2023-02-19T09:47:26;98659.05;;;3.68;73.49
59939;BME280;45801;51.810;19.444;2023-02-19T09:50:01;98659.14;;;3.73;72.80
59939;BME280;45801;51.810;19.444;2023-02-19T09:52:50;98664.18;;;3.67;71.40
59939;BME280;45801;51.810;19.444;2023-02-19T09:57:55;98667.41;;;3.61;71.12
59939;BME280;45801;51.810;19.444;2023-02-19T10:00:25;98665.84;;;3.63;71.26
59939;BME280;45801;51.810;19.444;2023-02-19T10:03:04;98664.16;;;3.70;71.73
59939;BME280;45801;51.810;19.444;2023-02-19T10:05:33;98667.53;;;3.80;71.61
59939;BME280;45801;51.810;19.444;2023-02-19T10:08:03;98671.70;;;3.86;70.48
59939;BME280;45801;51.810;19.444;2023-02-19T10:10:36;98676.00;;;3.85;69.43
59939;BME280;45801;51.810;19.444;2023-02-19T10:13:22;98677.23;;;3.85;69.85
59939;BME280;45801;51.810;19.444;2023-02-19T10:15:55;98680.77;;;3.89;69.43
59939;BME280;45801;51.810;19.444;2023-02-19T10:18:27;98682.54;;;3.90;68.29
59939;BME280;45801;51.810;19.444;2023-02-19T10:20:55;98683.08;;;3.91;67.47
59939;BME280;45801;51.810;19.444;2023-02-19T10:23:23;98683.14;;;3.80;67.31
59939;BME280;45801;51.810;19.444;2023-02-19T10:25:53;98685.05;;;3.66;66.30
59939;BME280;45801;51.810;19.444;2023-02-19T10:28:26;98686.80;;;3.60;67.18
59939;BME280;45801;51.810;19.444;2023-02-19T10:30:56;98690.09;;;3.60;66.81
59939;BME280;45801;51.810;19.444;2023-02-19T10:33:24;98688.89;;;3.55;66.66
59939;BME280;45801;51.810;19.444;2023-02-19T10:36:01;98697.64;;;3.56;65.67
59939;BME280;45801;51.810;19.444;2023-02-19T10:38:34;98701.62;;;3.54;66.04
59939;BME280;45801;51.810;19.444;2023-02-19T10:41:22;98702.95;;;3.64;66.47
59939;BME280;45801;51.810;19.444;2023-02-19T10:44:04;98707.73;;;3.68;67.01
59939;BME280;45801;51.810;19.444;2023-02-19T10:46:35;98709.89;;;3.73;66.63
59939;BME280;45801;51.810;19.444;2023-02-19T10:49:27;98714.27;;;3.71;65.84
59939;BME280;45801;51.810;19.444;2023-02-19T10:51:59;98714.08;;;3.65;65.47
59939;BME280;45801;51.810;19.444;2023-02-19T10:54:30;98715.58;;;3.78;66.02
59939;BME280;45801;51.810;19.444;2023-02-19T10:59:49;98722.59;;;3.79;64.38
59939;BME280;45801;51.810;19.444;2023-02-19T11:02:17;98718.59;;;3.76;65.56
59939;BME280;45801;51.810;19.444;2023-02-19T11:07:33;98720.94;;;3.75;65.92
59939;BME280;45801;51.810;19.444;2023-02-19T11:10:02;98722.51;;;3.89;67.11
59939;BME280;45801;51.810;19.444;2023-02-19T11:12:31;98729.61;;;3.98;65.59
59939;BME280;45801;51.810;19.444;2023-02-19T11:15:25;98730.44;;;3.97;65.72
59939;BME280;45801;51.810;19.444;2023-02-19T11:17:54;98731.19;;;3.89;65.83
59939;BME280;45801;51.810;19.444;2023-02-19T11:20:22;98733.60;;;3.86;65.77
59939;BME280;45801;51.810;19.444;2023-02-19T11:22:49;98735.30;;;3.86;66.07
59939;BME280;45801;51.810;19.444;2023-02-19T11:25:20;98739.15;;;3.92;66.45
59939;BME280;45801;51.810;19.444;2023-02-19T11:28:01;98737.96;;;3.98;66.17
59939;BME280;45801;51.810;19.444;2023-02-19T11:30:43;98731.44;;;4.05;65.67
59939;BME280;45801;51.810;19.444;2023-02-19T11:33:25;98736.22;;;4.07;64.65
59939;BME280;45801;51.810;19.444;2023-02-19T11:35:59;98740.89;;;4.04;64.09
59939;BME280;45801;51.810;19.444;2023-02-19T11:38:43;98747.44;;;4.00;64.69
59939;BME280;45801;51.810;19.444;2023-02-19T11:41:18;98751.36;;;4.02;65.24
59939;BME280;45801;51.810;19.444;2023-02-19T11:49:39;98751.10;;;3.98;65.29
59939;BME280;45801;51.810;19.444;2023-02-19T11:52:20;98748.73;;;3.96;64.81
59939;BME280;45801;51.810;19.444;2023-02-19T11:54:51;98748.23;;;3.94;64.92
59939;BME280;45801;51.810;19.444;2023-02-19T12:00:29;98751.36;;;4.05;64.77
59939;BME280;45801;51.810;19.444;2023-02-19T12:03:03;98751.14;;;4.13;64.27
59939;BME280;45801;51.810;19.444;2023-02-19T12:11:09;98763.31;;;4.28;64.30
59939;BME280;45801;51.810;19.444;2023-02-19T12:14:00;98764.60;;;4.35;64.57
59939;BME280;45801;51.810;19.444;2023-02-19T12:16:53;98765.27;;;4.40;64.84
59939;BME280;45801;51.810;19.444;2023-02-19T12:20:05;98770.59;;;4.48;64.55
59939;BME280;45801;51.810;19.444;2023-02-19T12:23:01;98782.85;;;4.44;63.48
59939;BME280;45801;51.810;19.444;2023-02-19T12:32:04;98794.10;;;4.12;61.71
59939;BME280;45801;51.810;19.444;2023-02-19T12:34:58;98794.05;;;4.06;61.03
59939;BME280;45801;51.810;19.444;2023-02-19T12:37:29;98796.48;;;4.03;61.27
59939;BME280;45801;51.810;19.444;2023-02-19T12:40:20;98801.52;;;4.03;61.07
59939;BME280;45801;51.810;19.444;2023-02-19T12:42:57;98806.91;;;3.98;61.26
59939;BME280;45801;51.810;19.444;2023-02-19T12:46:02;98814.84;;;3.86;60.43
59939;BME280;45801;51.810;19.444;2023-02-19T12:51:09;98826.05;;;3.83;60.62
59939;BME280;45801;51.810;19.444;2023-02-19T12:53:41;98824.35;;;3.83;60.30
59939;BME280;45801;51.810;19.444;2023-02-19T12:56:16;98828.88;;;3.73;59.45
59939;BME280;45801;51.810;19.444;2023-02-19T12:58:49;98827.31;;;3.73;59.74
59939;BME280;45801;51.810;19.444;2023-02-19T13:01:25;98828.84;;;3.72;60.03
59939;BME280;45801;51.810;19.444;2023-02-19T13:07:12;98827.95;;;3.75;60.02
59939;BME280;45801;51.810;19.444;2023-02-19T13:10:16;98825.30;;;3.79;60.31
59939;BME280;45801;51.810;19.444;2023-02-19T13:12:45;98824.35;;;3.83;60.41
59939;BME280;45801;51.810;19.444;2023-02-19T13:15:17;98822.11;;;3.86;60.40
59939;BME280;45801;51.810;19.444;2023-02-19T13:17:56;98822.82;;;3.89;60.14
59939;BME280;45801;51.810;19.444;2023-02-19T13:20:37;98824.57;;;4.01;60.49
59939;BME280;45801;51.810;19.444;2023-02-19T13:23:16;98827.96;;;4.08;60.15
59939;BME280;45801;51.810;19.444;2023-02-19T13:26:42;98831.41;;;4.10;59.82
59939;BME280;45801;51.810;19.444;2023-02-19T13:32:51;98841.05;;;3.98;59.21
59939;BME280;45801;51.810;19.444;2023-02-19T13:38:09;98838.95;;;4.14;59.19
59939;BME280;45801;51.810;19.444;2023-02-19T13:40:41;98845.16;;;4.14;59.55
59939;BME280;45801;51.810;19.444;2023-02-19T13:43:22;98848.84;;;4.17;59.85
59939;BME280;45801;51.810;19.444;2023-02-19T13:45:56;98854.10;;;4.05;59.09
59939;BME280;45801;51.810;19.444;2023-02-19T13:48:27;98856.55;;;4.13;59.96
59939;BME280;45801;51.810;19.444;2023-02-19T13:56:36;98867.70;;;4.31;59.61
59939;BME280;45801;51.810;19.444;2023-02-19T13:59:22;98874.67;;;4.32;58.62
59939;BME280;45801;51.810;19.444;2023-02-19T14:14:40;98888.31;;;4.06;56.87
59939;BME280;45801;51.810;19.444;2023-02-19T14:31:19;98901.06;;;4.15;58.21
59939;BME280;45801;51.810;19.444;2023-02-19T14:33:53;98904.88;;;4.21;58.49
59939;BME280;45801;51.810;19.444;2023-02-19T14:39:21;98905.52;;;4.34;58.14
59939;BME280;45801;51.810;19.444;2023-02-19T14:41:52;98903.88;;;4.33;57.72
59939;BME280;45801;51.810;19.444;2023-02-19T14:44:24;98904.11;;;4.34;57.70
59939;BME280;45801;51.810;19.444;2023-02-19T14:47:03;98904.89;;;4.27;56.83
59939;BME280;45801;51.810;19.444;2023-02-19T14:52:36;98916.08;;;4.09;55.51
59939;BME280;45801;51.810;19.444;2023-02-19T14:55:28;98921.73;;;4.00;55.87
59939;BME280;45801;51.810;19.444;2023-02-19T14:57:59;98922.16;;;3.98;56.53
59939;BME280;45801;51.810;19.444;2023-02-19T15:00:34;98919.39;;;3.96;56.29
59939;BME280;45801;51.810;19.444;2023-02-19T15:03:03;98916.98;;;4.01;56.97
59939;BME280;45801;51.810;19.444;2023-02-19T15:05:32;98919.16;;;4.00;57.21
59939;BME280;45801;51.810;19.444;2023-02-19T15:08:07;98920.85;;;4.05;57.42
59939;BME280;45801;51.810;19.444;2023-02-19T15:10:37;98923.67;;;4.09;57.86
59939;BME280;45801;51.810;19.444;2023-02-19T15:13:06;98927.90;;;4.15;58.40